sensor_id;sensor_type;location;lat;lon;timestamp;P1;durP1;ratioP1;P2;durP2;ratioP2
6015;SDS011;3036;49.960;8.454;2022-08-21T00:00:23;2.55;;;1.92;;
6015;SDS011;3036;49.960;8.454;2022-08-21T00:02:51;4.55;;;1.98;;
6015;SDS011;3036;49.960;8.454;2022-08-21T00:05:19;1.95;;;1.95;;
6015;SDS011;3036;49.960;8.454;2022-08-21T00:07:46;2.70;;;2.08;;
6015;SDS011;3036;49.960;8.454;2022-08-21T00:10:14;2.78;;;2.15;;
6015;SDS011;3036;49.960;8.454;2022-08-21T00:12:42;1.70;;;1.60;;
6015;SDS011;3036;49.960;8.454;2022-08-21T00:15:12;2.10;;;1.88;;
6015;SDS011;3036;49.960;8.454;2022-08-21T00:17:41;1.75;;;1.75;;
6015;SDS011;3036;49.960;8.454;2022-08-21T00:20:09;3.50;;;2.13;;
6015;SDS011;3036;49.960;8.454;2022-08-21T00:22:36;2.55;;;1.85;;
6015;SDS011;3036;49.960;8.454;2022-08-21T00:25:04;1.60;;;1.60;;
6015;SDS011;3036;49.960;8.454;2022-08-21T00:27:32;1.83;;;1.73;;
6015;SDS011;3036;49.960;8.454;2022-08-21T00:29:59;1.73;;;1.65;;
6015;SDS011;3036;49.960;8.454;2022-08-21T00:32:28;1.77;;;1.67;;
6015;SDS011;3036;49.960;8.454;2022-08-21T00:34:55;2.40;;;2.10;;
6015;SDS011;3036;49.960;8.454;2022-08-21T00:37:22;2.22;;;2.08;;
6015;SDS011;3036;49.960;8.454;2022-08-21T00:39:49;1.50;;;1.50;;
6015;SDS011;3036;49.960;8.454;2022-08-21T00:42:18;1.67;;;1.67;;
6015;SDS011;3036;49.960;8.454;2022-08-21T00:44:46;2.65;;;2.10;;
6015;SDS011;3036;49.960;8.454;2022-08-21T00:47:15;1.98;;;1.90;;
6015;SDS011;3036;49.960;8.454;2022-08-21T00:49:43;2.85;;;1.80;;
6015;SDS011;3036;49.960;8.454;2022-08-21T00:52:12;2.08;;;1.98;;
6015;SDS011;3036;49.960;8.454;2022-08-21T00:54:40;1.88;;;1.77;;
6015;SDS011;3036;49.960;8.454;2022-08-21T00:57:13;2.33;;;2.15;;
6015;SDS011;3036;49.960;8.454;2022-08-21T00:59:40;2.53;;;2.08;;
6015;SDS011;3036;49.960;8.454;2022-08-21T01:02:11;1.83;;;1.73;;
6015;SDS011;3036;49.960;8.454;2022-08-21T01:04:38;1.88;;;1.77;;
6015;SDS011;3036;49.960;8.454;2022-08-21T01:07:06;2.00;;;1.67;;
6015;SDS011;3036;49.960;8.454;2022-08-21T01:09:34;2.72;;;1.92;;
6015;SDS011;3036;49.960;8.454;2022-08-21T01:12:01;2.20;;;1.95;;
6015;SDS011;3036;49.960;8.454;2022-08-21T01:14:28;3.15;;;2.25;;
6015;SDS011;3036;49.960;8.454;2022-08-21T01:16:55;1.90;;;1.80;;
6015;SDS011;3036;49.960;8.454;2022-08-21T01:19:23;1.90;;;1.80;;
6015;SDS011;3036;49.960;8.454;2022-08-21T01:21:51;3.13;;;1.83;;
6015;SDS011;3036;49.960;8.454;2022-08-21T01:24:19;1.67;;;1.65;;
6015;SDS011;3036;49.960;8.454;2022-08-21T01:26:47;2.63;;;2.45;;
6015;SDS011;3036;49.960;8.454;2022-08-21T01:29:16;2.78;;;2.05;;
6015;SDS011;3036;49.960;8.454;2022-08-21T01:31:46;1.80;;;1.70;;
6015;SDS011;3036;49.960;8.454;2022-08-21T01:34:13;2.13;;;2.03;;
6015;SDS011;3036;49.960;8.454;2022-08-21T01:36:41;2.08;;;1.90;;
6015;SDS011;3036;49.960;8.454;2022-08-21T01:39:10;1.95;;;1.85;;
6015;SDS011;3036;49.960;8.454;2022-08-21T01:41:37;1.67;;;1.58;;
6015;SDS011;3036;49.960;8.454;2022-08-21T01:44:04;1.90;;;1.80;;
6015;SDS011;3036;49.960;8.454;2022-08-21T01:46:31;1.80;;;1.70;;
6015;SDS011;3036;49.960;8.454;2022-08-21T01:48:58;2.33;;;2.20;;
6015;SDS011;3036;49.960;8.454;2022-08-21T01:51:25;2.03;;;1.90;;
6015;SDS011;3036;49.960;8.454;2022-08-21T01:53:52;1.63;;;1.60;;
6015;SDS011;3036;49.960;8.454;2022-08-21T01:56:20;2.70;;;1.70;;
6015;SDS011;3036;49.960;8.454;2022-08-21T01:58:48;2.90;;;1.75;;
6015;SDS011;3036;49.960;8.454;2022-08-21T02:01:15;1.80;;;1.70;;
6015;SDS011;3036;49.960;8.454;2022-08-21T02:03:42;1.83;;;1.73;;
6015;SDS011;3036;49.960;8.454;2022-08-21T02:06:11;2.45;;;1.60;;
6015;SDS011;3036;49.960;8.454;2022-08-21T02:08:40;1.88;;;1.65;;
6015;SDS011;3036;49.960;8.454;2022-08-21T02:11:07;2.58;;;2.00;;
6015;SDS011;3036;49.960;8.454;2022-08-21T02:13:35;1.98;;;1.88;;
6015;SDS011;3036;49.960;8.454;2022-08-21T02:16:02;1.88;;;1.77;;
6015;SDS011;3036;49.960;8.454;2022-08-21T02:18:29;2.00;;;1.90;;
6015;SDS011;3036;49.960;8.454;2022-08-21T02:20:57;1.48;;;1.48;;
6015;SDS011;3036;49.960;8.454;2022-08-21T02:23:24;1.63;;;1.63;;
6015;SDS011;3036;49.960;8.454;2022-08-21T02:25:51;2.22;;;2.03;;
6015;SDS011;3036;49.960;8.454;2022-08-21T02:28:18;2.30;;;1.95;;
6015;SDS011;3036;49.960;8.454;2022-08-21T02:30:47;1.90;;;1.80;;
6015;SDS011;3036;49.960;8.454;2022-08-21T02:33:14;1.45;;;1.45;;
6015;SDS011;3036;49.960;8.454;2022-08-21T02:35:41;2.15;;;1.50;;
6015;SDS011;3036;49.960;8.454;2022-08-21T02:38:09;1.92;;;1.77;;
6015;SDS011;3036;49.960;8.454;2022-08-21T02:40:37;1.73;;;1.67;;
6015;SDS011;3036;49.960;8.454;2022-08-21T02:43:05;2.67;;;1.70;;
6015;SDS011;3036;49.960;8.454;2022-08-21T02:45:33;1.50;;;1.42;;
6015;SDS011;3036;49.960;8.454;2022-08-21T02:48:03;1.40;;;1.30;;
6015;SDS011;3036;49.960;8.454;2022-08-21T02:50:32;1.45;;;1.42;;
6015;SDS011;3036;49.960;8.454;2022-08-21T02:52:59;3.95;;;1.50;;
6015;SDS011;3036;49.960;8.454;2022-08-21T02:55:27;1.50;;;1.40;;
6015;SDS011;3036;49.960;8.454;2022-08-21T02:57:55;1.60;;;1.60;;
6015;SDS011;3036;49.960;8.454;2022-08-21T03:00:24;1.73;;;1.45;;
6015;SDS011;3036;49.960;8.454;2022-08-21T03:02:51;1.73;;;1.45;;
6015;SDS011;3036;49.960;8.454;2022-08-21T03:05:22;1.75;;;1.75;;
6015;SDS011;3036;49.960;8.454;2022-08-21T03:07:50;1.80;;;1.50;;
6015;SDS011;3036;49.960;8.454;2022-08-21T03:10:18;1.83;;;1.73;;
6015;SDS011;3036;49.960;8.454;2022-08-21T03:12:45;2.47;;;1.40;;
6015;SDS011;3036;49.960;8.454;2022-08-21T03:15:14;1.30;;;1.30;;
6015;SDS011;3036;49.960;8.454;2022-08-21T03:17:42;1.50;;;1.35;;
6015;SDS011;3036;49.960;8.454;2022-08-21T03:20:09;1.25;;;1.25;;
6015;SDS011;3036;49.960;8.454;2022-08-21T03:22:38;2.55;;;1.60;;
6015;SDS011;3036;49.960;8.454;2022-08-21T03:25:06;2.22;;;1.67;;
6015;SDS011;3036;49.960;8.454;2022-08-21T03:27:33;1.90;;;1.77;;
6015;SDS011;3036;49.960;8.454;2022-08-21T03:30:02;1.65;;;1.55;;
6015;SDS011;3036;49.960;8.454;2022-08-21T03:32:29;1.70;;;1.50;;
6015;SDS011;3036;49.960;8.454;2022-08-21T03:34:56;1.85;;;1.40;;
6015;SDS011;3036;49.960;8.454;2022-08-21T03:37:25;1.58;;;1.40;;
6015;SDS011;3036;49.960;8.454;2022-08-21T03:39:53;1.65;;;1.55;;
6015;SDS011;3036;49.960;8.454;2022-08-21T03:42:21;1.67;;;1.55;;
6015;SDS011;3036;49.960;8.454;2022-08-21T03:44:48;1.50;;;1.40;;
6015;SDS011;3036;49.960;8.454;2022-08-21T03:47:15;2.35;;;1.88;;
6015;SDS011;3036;49.960;8.454;2022-08-21T03:49:42;1.63;;;1.63;;
6015;SDS011;3036;49.960;8.454;2022-08-21T03:52:09;2.50;;;1.65;;
6015;SDS011;3036;49.960;8.454;2022-08-21T03:54:36;1.58;;;1.48;;
6015;SDS011;3036;49.960;8.454;2022-08-21T03:57:06;1.30;;;1.20;;
6015;SDS011;3036;49.960;8.454;2022-08-21T03:59:33;1.75;;;1.45;;
6015;SDS011;3036;49.960;8.454;2022-08-21T04:02:01;1.25;;;1.25;;
6015;SDS011;3036;49.960;8.454;2022-08-21T04:04:28;2.35;;;1.60;;
6015;SDS011;3036;49.960;8.454;2022-08-21T04:06:55;1.83;;;1.73;;
6015;SDS011;3036;49.960;8.454;2022-08-21T04:09:22;1.50;;;1.38;;
6015;SDS011;3036;49.960;8.454;2022-08-21T04:11:50;1.30;;;1.30;;
6015;SDS011;3036;49.960;8.454;2022-08-21T04:14:19;1.50;;;1.40;;
6015;SDS011;3036;49.960;8.454;2022-08-21T04:16:46;1.48;;;1.38;;
6015;SDS011;3036;49.960;8.454;2022-08-21T04:19:13;1.90;;;1.80;;
6015;SDS011;3036;49.960;8.454;2022-08-21T04:21:40;1.58;;;1.50;;
6015;SDS011;3036;49.960;8.454;2022-08-21T04:24:08;1.67;;;1.58;;
6015;SDS011;3036;49.960;8.454;2022-08-21T04:26:35;1.35;;;1.35;;
6015;SDS011;3036;49.960;8.454;2022-08-21T04:29:03;1.55;;;1.48;;
6015;SDS011;3036;49.960;8.454;2022-08-21T04:31:32;1.65;;;1.42;;
6015;SDS011;3036;49.960;8.454;2022-08-21T04:34:01;2.00;;;1.60;;
6015;SDS011;3036;49.960;8.454;2022-08-21T04:36:29;1.45;;;1.40;;
6015;SDS011;3036;49.960;8.454;2022-08-21T04:38:56;1.55;;;1.35;;
6015;SDS011;3036;49.960;8.454;2022-08-21T04:41:24;1.27;;;1.25;;
6015;SDS011;3036;49.960;8.454;2022-08-21T04:43:51;3.17;;;1.50;;
6015;SDS011;3036;49.960;8.454;2022-08-21T04:46:20;2.10;;;1.83;;
6015;SDS011;3036;49.960;8.454;2022-08-21T04:48:48;4.65;;;2.10;;
6015;SDS011;3036;49.960;8.454;2022-08-21T04:51:16;1.48;;;1.48;;
6015;SDS011;3036;49.960;8.454;2022-08-21T04:53:45;2.55;;;1.67;;
6015;SDS011;3036;49.960;8.454;2022-08-21T04:56:13;1.65;;;1.55;;
6015;SDS011;3036;49.960;8.454;2022-08-21T04:58:41;1.75;;;1.67;;
6015;SDS011;3036;49.960;8.454;2022-08-21T05:01:10;1.85;;;1.75;;
6015;SDS011;3036;49.960;8.454;2022-08-21T05:03:38;1.63;;;1.63;;
6015;SDS011;3036;49.960;8.454;2022-08-21T05:06:08;2.10;;;1.80;;
6015;SDS011;3036;49.960;8.454;2022-08-21T05:08:36;1.80;;;1.80;;
6015;SDS011;3036;49.960;8.454;2022-08-21T05:11:03;1.50;;;1.50;;
6015;SDS011;3036;49.960;8.454;2022-08-21T05:13:30;3.28;;;1.60;;
6015;SDS011;3036;49.960;8.454;2022-08-21T05:15:58;3.47;;;1.60;;
6015;SDS011;3036;49.960;8.454;2022-08-21T05:18:25;2.47;;;1.77;;
6015;SDS011;3036;49.960;8.454;2022-08-21T05:20:52;1.90;;;1.80;;
6015;SDS011;3036;49.960;8.454;2022-08-21T05:23:20;2.13;;;1.88;;
6015;SDS011;3036;49.960;8.454;2022-08-21T05:25:47;1.25;;;1.25;;
6015;SDS011;3036;49.960;8.454;2022-08-21T05:28:14;1.85;;;1.65;;
6015;SDS011;3036;49.960;8.454;2022-08-21T05:30:43;1.35;;;1.33;;
6015;SDS011;3036;49.960;8.454;2022-08-21T05:33:10;1.77;;;1.67;;
6015;SDS011;3036;49.960;8.454;2022-08-21T05:35:37;1.35;;;1.33;;
6015;SDS011;3036;49.960;8.454;2022-08-21T05:38:05;1.58;;;1.48;;
6015;SDS011;3036;49.960;8.454;2022-08-21T05:40:33;1.70;;;1.70;;
6015;SDS011;3036;49.960;8.454;2022-08-21T05:43:00;1.98;;;1.55;;
6015;SDS011;3036;49.960;8.454;2022-08-21T05:45:29;1.83;;;1.73;;
6015;SDS011;3036;49.960;8.454;2022-08-21T05:47:56;1.65;;;1.55;;
6015;SDS011;3036;49.960;8.454;2022-08-21T05:50:23;1.70;;;1.50;;
6015;SDS011;3036;49.960;8.454;2022-08-21T05:52:50;1.52;;;1.42;;
6015;SDS011;3036;49.960;8.454;2022-08-21T05:55:17;3.88;;;1.67;;
6015;SDS011;3036;49.960;8.454;2022-08-21T05:57:46;3.08;;;1.90;;
6015;SDS011;3036;49.960;8.454;2022-08-21T06:00:13;2.25;;;1.40;;
6015;SDS011;3036;49.960;8.454;2022-08-21T06:02:41;2.30;;;1.60;;
6015;SDS011;3036;49.960;8.454;2022-08-21T06:05:08;2.15;;;1.85;;
6015;SDS011;3036;49.960;8.454;2022-08-21T06:07:35;4.10;;;1.80;;
6015;SDS011;3036;49.960;8.454;2022-08-21T06:10:03;1.52;;;1.42;;
6015;SDS011;3036;49.960;8.454;2022-08-21T06:12:30;3.40;;;1.40;;
6015;SDS011;3036;49.960;8.454;2022-08-21T06:14:58;1.50;;;1.50;;
6015;SDS011;3036;49.960;8.454;2022-08-21T06:17:25;3.13;;;1.92;;
6015;SDS011;3036;49.960;8.454;2022-08-21T06:19:58;1.40;;;1.40;;
6015;SDS011;3036;49.960;8.454;2022-08-21T06:22:25;6.15;;;1.50;;
6015;SDS011;3036;49.960;8.454;2022-08-21T06:24:53;1.60;;;1.50;;
6015;SDS011;3036;49.960;8.454;2022-08-21T06:27:20;2.40;;;1.75;;
6015;SDS011;3036;49.960;8.454;2022-08-21T06:29:47;2.00;;;1.77;;
6015;SDS011;3036;49.960;8.454;2022-08-21T06:32:16;2.40;;;1.77;;
6015;SDS011;3036;49.960;8.454;2022-08-21T06:34:43;3.65;;;1.52;;
6015;SDS011;3036;49.960;8.454;2022-08-21T06:37:10;3.60;;;1.77;;
6015;SDS011;3036;49.960;8.454;2022-08-21T06:39:37;1.73;;;1.63;;
6015;SDS011;3036;49.960;8.454;2022-08-21T06:42:04;1.50;;;1.40;;
6015;SDS011;3036;49.960;8.454;2022-08-21T06:44:31;2.95;;;1.65;;
6015;SDS011;3036;49.960;8.454;2022-08-21T06:46:58;4.57;;;1.48;;
6015;SDS011;3036;49.960;8.454;2022-08-21T06:49:26;3.30;;;1.60;;
6015;SDS011;3036;49.960;8.454;2022-08-21T06:51:53;4.47;;;1.75;;
6015;SDS011;3036;49.960;8.454;2022-08-21T06:54:20;1.80;;;1.70;;
6015;SDS011;3036;49.960;8.454;2022-08-21T06:56:47;2.50;;;1.95;;
6015;SDS011;3036;49.960;8.454;2022-08-21T06:59:14;2.03;;;1.77;;
6015;SDS011;3036;49.960;8.454;2022-08-21T07:01:41;2.28;;;1.60;;
6015;SDS011;3036;49.960;8.454;2022-08-21T07:04:09;2.05;;;1.80;;
6015;SDS011;3036;49.960;8.454;2022-08-21T07:06:38;1.80;;;1.52;;
6015;SDS011;3036;49.960;8.454;2022-08-21T07:09:05;2.28;;;2.10;;
6015;SDS011;3036;49.960;8.454;2022-08-21T07:11:32;2.67;;;1.70;;
6015;SDS011;3036;49.960;8.454;2022-08-21T07:14:01;2.20;;;1.48;;
6015;SDS011;3036;49.960;8.454;2022-08-21T07:16:28;2.17;;;1.60;;
6015;SDS011;3036;49.960;8.454;2022-08-21T07:18:55;1.58;;;1.48;;
6015;SDS011;3036;49.960;8.454;2022-08-21T07:21:22;1.92;;;1.67;;
6015;SDS011;3036;49.960;8.454;2022-08-21T07:23:51;1.85;;;1.75;;
6015;SDS011;3036;49.960;8.454;2022-08-21T07:26:19;2.13;;;1.40;;
6015;SDS011;3036;49.960;8.454;2022-08-21T07:28:47;1.58;;;1.48;;
6015;SDS011;3036;49.960;8.454;2022-08-21T07:31:15;2.30;;;1.85;;
6015;SDS011;3036;49.960;8.454;2022-08-21T07:33:43;1.58;;;1.58;;
6015;SDS011;3036;49.960;8.454;2022-08-21T07:36:10;1.27;;;1.27;;
6015;SDS011;3036;49.960;8.454;2022-08-21T07:38:41;1.75;;;1.65;;
6015;SDS011;3036;49.960;8.454;2022-08-21T07:41:12;4.22;;;2.28;;
6015;SDS011;3036;49.960;8.454;2022-08-21T07:43:40;2.20;;;1.67;;
6015;SDS011;3036;49.960;8.454;2022-08-21T07:46:07;1.83;;;1.75;;
6015;SDS011;3036;49.960;8.454;2022-08-21T07:48:34;1.90;;;1.80;;
6015;SDS011;3036;49.960;8.454;2022-08-21T07:51:02;1.98;;;1.80;;
6015;SDS011;3036;49.960;8.454;2022-08-21T07:53:30;1.70;;;1.60;;
6015;SDS011;3036;49.960;8.454;2022-08-21T07:55:57;1.85;;;1.50;;
6015;SDS011;3036;49.960;8.454;2022-08-21T07:58:26;3.67;;;1.80;;
6015;SDS011;3036;49.960;8.454;2022-08-21T08:00:53;1.80;;;1.70;;
6015;SDS011;3036;49.960;8.454;2022-08-21T08:03:20;1.77;;;1.67;;
6015;SDS011;3036;49.960;8.454;2022-08-21T08:05:47;1.73;;;1.40;;
6015;SDS011;3036;49.960;8.454;2022-08-21T08:08:14;1.80;;;1.70;;
6015;SDS011;3036;49.960;8.454;2022-08-21T08:10:41;2.15;;;2.05;;
6015;SDS011;3036;49.960;8.454;2022-08-21T08:13:09;1.85;;;1.75;;
6015;SDS011;3036;49.960;8.454;2022-08-21T08:15:37;1.85;;;1.77;;
6015;SDS011;3036;49.960;8.454;2022-08-21T08:18:04;2.10;;;2.10;;
6015;SDS011;3036;49.960;8.454;2022-08-21T08:20:31;2.33;;;2.13;;
6015;SDS011;3036;49.960;8.454;2022-08-21T08:22:58;2.10;;;1.88;;
6015;SDS011;3036;49.960;8.454;2022-08-21T08:25:25;2.30;;;2.00;;
6015;SDS011;3036;49.960;8.454;2022-08-21T08:27:53;1.90;;;1.80;;
6015;SDS011;3036;49.960;8.454;2022-08-21T08:30:20;2.88;;;2.38;;
6015;SDS011;3036;49.960;8.454;2022-08-21T08:32:50;2.65;;;2.30;;
6015;SDS011;3036;49.960;8.454;2022-08-21T08:35:18;1.75;;;1.65;;
6015;SDS011;3036;49.960;8.454;2022-08-21T08:37:45;2.92;;;2.22;;
6015;SDS011;3036;49.960;8.454;2022-08-21T08:40:12;2.95;;;2.15;;
6015;SDS011;3036;49.960;8.454;2022-08-21T08:42:40;2.80;;;2.58;;
6015;SDS011;3036;49.960;8.454;2022-08-21T08:45:08;2.40;;;2.30;;
6015;SDS011;3036;49.960;8.454;2022-08-21T08:47:37;2.35;;;2.28;;
6015;SDS011;3036;49.960;8.454;2022-08-21T08:50:07;2.53;;;2.33;;
6015;SDS011;3036;49.960;8.454;2022-08-21T08:52:37;2.28;;;2.08;;
6015;SDS011;3036;49.960;8.454;2022-08-21T08:55:08;2.38;;;2.28;;
6015;SDS011;3036;49.960;8.454;2022-08-21T08:57:35;2.33;;;2.22;;
6015;SDS011;3036;49.960;8.454;2022-08-21T09:00:05;2.90;;;2.70;;
6015;SDS011;3036;49.960;8.454;2022-08-21T09:02:33;2.70;;;2.50;;
6015;SDS011;3036;49.960;8.454;2022-08-21T09:05:00;4.13;;;2.75;;
6015;SDS011;3036;49.960;8.454;2022-08-21T09:07:31;2.40;;;2.30;;
6015;SDS011;3036;49.960;8.454;2022-08-21T09:10:06;2.25;;;2.20;;
6015;SDS011;3036;49.960;8.454;2022-08-21T09:12:38;3.10;;;2.90;;
6015;SDS011;3036;49.960;8.454;2022-08-21T09:15:09;3.40;;;2.83;;
6015;SDS011;3036;49.960;8.454;2022-08-21T09:17:40;2.58;;;2.40;;
6015;SDS011;3036;49.960;8.454;2022-08-21T09:20:14;2.03;;;1.92;;
6015;SDS011;3036;49.960;8.454;2022-08-21T09:22:49;2.67;;;2.17;;
6015;SDS011;3036;49.960;8.454;2022-08-21T09:25:21;3.20;;;2.47;;
6015;SDS011;3036;49.960;8.454;2022-08-21T09:27:49;2.22;;;1.33;;
6015;SDS011;3036;49.960;8.454;2022-08-21T09:30:17;1.83;;;1.73;;
6015;SDS011;3036;49.960;8.454;2022-08-21T09:32:44;2.63;;;1.40;;
6015;SDS011;3036;49.960;8.454;2022-08-21T09:35:12;1.80;;;1.70;;
6015;SDS011;3036;49.960;8.454;2022-08-21T09:37:48;2.03;;;1.77;;
6015;SDS011;3036;49.960;8.454;2022-08-21T09:40:19;1.92;;;1.70;;
6015;SDS011;3036;49.960;8.454;2022-08-21T09:42:53;1.63;;;1.63;;
6015;SDS011;3036;49.960;8.454;2022-08-21T09:45:20;1.95;;;1.85;;
6015;SDS011;3036;49.960;8.454;2022-08-21T09:47:47;1.50;;;1.50;;
6015;SDS011;3036;49.960;8.454;2022-08-21T09:50:15;1.60;;;1.52;;
6015;SDS011;3036;49.960;8.454;2022-08-21T09:52:44;1.40;;;1.30;;
6015;SDS011;3036;49.960;8.454;2022-08-21T09:55:16;1.50;;;1.40;;
6015;SDS011;3036;49.960;8.454;2022-08-21T09:57:58;1.13;;;1.13;;
6015;SDS011;3036;49.960;8.454;2022-08-21T10:00:28;1.60;;;1.50;;
6015;SDS011;3036;49.960;8.454;2022-08-21T10:03:06;2.03;;;1.80;;
6015;SDS011;3036;49.960;8.454;2022-08-21T10:05:33;1.50;;;1.40;;
6015;SDS011;3036;49.960;8.454;2022-08-21T10:08:00;2.25;;;2.05;;
6015;SDS011;3036;49.960;8.454;2022-08-21T10:10:30;1.50;;;1.50;;
6015;SDS011;3036;49.960;8.454;2022-08-21T10:12:58;3.22;;;1.50;;
6015;SDS011;3036;49.960;8.454;2022-08-21T10:15:34;2.55;;;1.70;;
6015;SDS011;3036;49.960;8.454;2022-08-21T10:18:07;2.15;;;1.70;;
6015;SDS011;3036;49.960;8.454;2022-08-21T10:20:37;1.92;;;1.80;;
6015;SDS011;3036;49.960;8.454;2022-08-21T10:23:10;1.70;;;1.60;;
6015;SDS011;3036;49.960;8.454;2022-08-21T10:25:47;1.67;;;1.58;;
6015;SDS011;3036;49.960;8.454;2022-08-21T10:28:17;1.70;;;1.60;;
6015;SDS011;3036;49.960;8.454;2022-08-21T10:30:48;2.95;;;2.15;;
6015;SDS011;3036;49.960;8.454;2022-08-21T10:33:20;1.67;;;1.40;;
6015;SDS011;3036;49.960;8.454;2022-08-21T10:35:52;1.30;;;1.27;;
6015;SDS011;3036;49.960;8.454;2022-08-21T10:41:13;1.63;;;1.52;;
6015;SDS011;3036;49.960;8.454;2022-08-21T10:43:45;1.85;;;1.65;;
6015;SDS011;3036;49.960;8.454;2022-08-21T10:46:15;1.27;;;1.27;;
6015;SDS011;3036;49.960;8.454;2022-08-21T10:48:46;2.05;;;1.58;;
6015;SDS011;3036;49.960;8.454;2022-08-21T10:51:15;1.52;;;1.42;;
6015;SDS011;3036;49.960;8.454;2022-08-21T10:53:48;1.23;;;1.23;;
6015;SDS011;3036;49.960;8.454;2022-08-21T10:56:19;1.20;;;1.20;;
6015;SDS011;3036;49.960;8.454;2022-08-21T10:58:49;1.60;;;1.50;;
6015;SDS011;3036;49.960;8.454;2022-08-21T11:01:19;1.52;;;1.42;;
6015;SDS011;3036;49.960;8.454;2022-08-21T11:03:50;2.13;;;1.27;;
6015;SDS011;3036;49.960;8.454;2022-08-21T11:06:20;1.48;;;1.45;;
6015;SDS011;3036;49.960;8.454;2022-08-21T11:08:50;3.35;;;1.88;;
6015;SDS011;3036;49.960;8.454;2022-08-21T11:11:22;1.35;;;1.25;;
6015;SDS011;3036;49.960;8.454;2022-08-21T11:13:52;1.40;;;1.40;;
6015;SDS011;3036;49.960;8.454;2022-08-21T11:16:21;1.75;;;1.40;;
6015;SDS011;3036;49.960;8.454;2022-08-21T11:18:51;1.25;;;1.20;;
6015;SDS011;3036;49.960;8.454;2022-08-21T11:21:26;1.27;;;1.27;;
6015;SDS011;3036;49.960;8.454;2022-08-21T11:23:54;1.20;;;1.15;;
6015;SDS011;3036;49.960;8.454;2022-08-21T11:26:30;1.75;;;1.38;;
6015;SDS011;3036;49.960;8.454;2022-08-21T11:29:01;1.10;;;1.10;;
6015;SDS011;3036;49.960;8.454;2022-08-21T11:31:33;2.17;;;1.33;;
6015;SDS011;3036;49.960;8.454;2022-08-21T11:34:05;1.15;;;1.00;;
6015;SDS011;3036;49.960;8.454;2022-08-21T11:36:38;1.45;;;1.38;;
6015;SDS011;3036;49.960;8.454;2022-08-21T11:39:09;1.77;;;1.38;;
6015;SDS011;3036;49.960;8.454;2022-08-21T11:41:43;2.30;;;1.30;;
6015;SDS011;3036;49.960;8.454;2022-08-21T11:44:14;1.15;;;1.00;;
6015;SDS011;3036;49.960;8.454;2022-08-21T11:46:47;1.15;;;1.15;;
6015;SDS011;3036;49.960;8.454;2022-08-21T11:49:26;1.45;;;1.30;;
6015;SDS011;3036;49.960;8.454;2022-08-21T11:51:59;1.95;;;1.13;;
6015;SDS011;3036;49.960;8.454;2022-08-21T11:54:31;1.42;;;1.35;;
6015;SDS011;3036;49.960;8.454;2022-08-21T11:57:03;2.10;;;1.08;;
6015;SDS011;3036;49.960;8.454;2022-08-21T11:59:35;1.83;;;1.33;;
6015;SDS011;3036;49.960;8.454;2022-08-21T12:02:03;1.63;;;1.25;;
6015;SDS011;3036;49.960;8.454;2022-08-21T12:04:42;1.15;;;1.15;;
6015;SDS011;3036;49.960;8.454;2022-08-21T12:07:11;1.65;;;1.50;;
6015;SDS011;3036;49.960;8.454;2022-08-21T12:09:38;1.10;;;1.10;;
6015;SDS011;3036;49.960;8.454;2022-08-21T12:12:13;1.23;;;1.15;;
6015;SDS011;3036;49.960;8.454;2022-08-21T12:14:50;0.90;;;0.90;;
6015;SDS011;3036;49.960;8.454;2022-08-21T12:17:18;1.20;;;1.20;;
6015;SDS011;3036;49.960;8.454;2022-08-21T12:19:56;2.58;;;1.33;;
6015;SDS011;3036;49.960;8.454;2022-08-21T12:22:24;1.30;;;1.20;;
6015;SDS011;3036;49.960;8.454;2022-08-21T12:25:03;2.25;;;1.23;;
6015;SDS011;3036;49.960;8.454;2022-08-21T12:27:40;1.45;;;1.35;;
6015;SDS011;3036;49.960;8.454;2022-08-21T12:30:19;2.17;;;1.50;;
6015;SDS011;3036;49.960;8.454;2022-08-21T12:32:54;2.67;;;1.15;;
6015;SDS011;3036;49.960;8.454;2022-08-21T12:35:23;1.30;;;1.20;;
6015;SDS011;3036;49.960;8.454;2022-08-21T12:37:52;1.27;;;1.13;;
6015;SDS011;3036;49.960;8.454;2022-08-21T12:40:23;1.40;;;0.98;;
6015;SDS011;3036;49.960;8.454;2022-08-21T12:42:53;1.13;;;1.02;;
6015;SDS011;3036;49.960;8.454;2022-08-21T12:45:23;1.67;;;1.02;;
6015;SDS011;3036;49.960;8.454;2022-08-21T12:47:54;2.30;;;1.45;;
6015;SDS011;3036;49.960;8.454;2022-08-21T12:50:26;1.35;;;1.25;;
6015;SDS011;3036;49.960;8.454;2022-08-21T12:52:56;1.20;;;0.90;;
6015;SDS011;3036;49.960;8.454;2022-08-21T12:55:27;0.93;;;0.90;;
6015;SDS011;3036;49.960;8.454;2022-08-21T12:57:55;1.55;;;1.30;;
6015;SDS011;3036;49.960;8.454;2022-08-21T13:00:24;1.05;;;0.95;;
6015;SDS011;3036;49.960;8.454;2022-08-21T13:02:52;1.25;;;1.17;;
6015;SDS011;3036;49.960;8.454;2022-08-21T13:05:21;2.00;;;1.40;;
6015;SDS011;3036;49.960;8.454;2022-08-21T13:07:50;1.25;;;1.25;;
6015;SDS011;3036;49.960;8.454;2022-08-21T13:10:18;1.10;;;1.10;;
6015;SDS011;3036;49.960;8.454;2022-08-21T13:12:47;1.23;;;1.20;;
6015;SDS011;3036;49.960;8.454;2022-08-21T13:15:21;1.35;;;1.25;;
6015;SDS011;3036;49.960;8.454;2022-08-21T13:17:49;1.30;;;1.20;;
6015;SDS011;3036;49.960;8.454;2022-08-21T13:20:19;1.00;;;1.00;;
6015;SDS011;3036;49.960;8.454;2022-08-21T13:22:47;1.48;;;1.42;;
6015;SDS011;3036;49.960;8.454;2022-08-21T13:25:14;1.10;;;1.10;;
6015;SDS011;3036;49.960;8.454;2022-08-21T13:27:43;0.90;;;0.90;;
6015;SDS011;3036;49.960;8.454;2022-08-21T13:30:17;1.10;;;1.10;;
6015;SDS011;3036;49.960;8.454;2022-08-21T13:32:48;1.08;;;1.08;;
6015;SDS011;3036;49.960;8.454;2022-08-21T13:35:16;1.30;;;1.10;;
6015;SDS011;3036;49.960;8.454;2022-08-21T13:37:44;1.17;;;0.98;;
6015;SDS011;3036;49.960;8.454;2022-08-21T13:40:13;1.77;;;1.00;;
6015;SDS011;3036;49.960;8.454;2022-08-21T13:42:41;1.10;;;1.08;;
6015;SDS011;3036;49.960;8.454;2022-08-21T13:45:21;2.47;;;1.10;;
6015;SDS011;3036;49.960;8.454;2022-08-21T13:47:50;0.90;;;0.90;;
6015;SDS011;3036;49.960;8.454;2022-08-21T13:50:18;2.92;;;1.00;;
6015;SDS011;3036;49.960;8.454;2022-08-21T13:52:49;1.05;;;0.93;;
6015;SDS011;3036;49.960;8.454;2022-08-21T13:55:16;1.38;;;1.10;;
6015;SDS011;3036;49.960;8.454;2022-08-21T13:57:44;1.05;;;1.05;;
6015;SDS011;3036;49.960;8.454;2022-08-21T14:00:12;1.10;;;1.10;;
6015;SDS011;3036;49.960;8.454;2022-08-21T14:02:39;1.00;;;0.90;;
6015;SDS011;3036;49.960;8.454;2022-08-21T14:05:13;1.10;;;1.10;;
6015;SDS011;3036;49.960;8.454;2022-08-21T14:07:42;1.30;;;1.20;;
6015;SDS011;3036;49.960;8.454;2022-08-21T14:10:11;1.40;;;1.30;;
6015;SDS011;3036;49.960;8.454;2022-08-21T14:12:41;1.00;;;1.00;;
6015;SDS011;3036;49.960;8.454;2022-08-21T14:15:09;1.75;;;1.13;;
6015;SDS011;3036;49.960;8.454;2022-08-21T14:17:37;1.73;;;1.38;;
6015;SDS011;3036;49.960;8.454;2022-08-21T14:20:08;1.02;;;1.02;;
6015;SDS011;3036;49.960;8.454;2022-08-21T14:22:38;1.05;;;0.98;;
6015;SDS011;3036;49.960;8.454;2022-08-21T14:25:07;1.30;;;1.02;;
6015;SDS011;3036;49.960;8.454;2022-08-21T14:27:36;2.58;;;1.17;;
6015;SDS011;3036;49.960;8.454;2022-08-21T14:30:08;1.85;;;1.55;;
6015;SDS011;3036;49.960;8.454;2022-08-21T14:32:38;0.90;;;0.90;;
6015;SDS011;3036;49.960;8.454;2022-08-21T14:35:05;2.20;;;1.38;;
6015;SDS011;3036;49.960;8.454;2022-08-21T14:37:32;1.35;;;1.10;;
6015;SDS011;3036;49.960;8.454;2022-08-21T14:40:01;1.33;;;1.15;;
6015;SDS011;3036;49.960;8.454;2022-08-21T14:42:28;1.00;;;0.95;;
6015;SDS011;3036;49.960;8.454;2022-08-21T14:44:56;0.93;;;0.85;;
6015;SDS011;3036;49.960;8.454;2022-08-21T14:47:24;1.33;;;0.90;;
6015;SDS011;3036;49.960;8.454;2022-08-21T14:49:51;1.30;;;1.20;;
6015;SDS011;3036;49.960;8.454;2022-08-21T14:52:18;0.93;;;0.90;;
6015;SDS011;3036;49.960;8.454;2022-08-21T14:54:47;0.77;;;0.77;;
6015;SDS011;3036;49.960;8.454;2022-08-21T14:57:16;1.00;;;1.00;;
6015;SDS011;3036;49.960;8.454;2022-08-21T14:59:43;1.00;;;1.00;;
6015;SDS011;3036;49.960;8.454;2022-08-21T15:02:10;0.80;;;0.80;;
6015;SDS011;3036;49.960;8.454;2022-08-21T15:04:37;1.23;;;1.10;;
6015;SDS011;3036;49.960;8.454;2022-08-21T15:07:04;1.60;;;1.02;;
6015;SDS011;3036;49.960;8.454;2022-08-21T15:09:31;1.10;;;1.10;;
6015;SDS011;3036;49.960;8.454;2022-08-21T15:11:59;1.15;;;0.80;;
6015;SDS011;3036;49.960;8.454;2022-08-21T15:14:29;1.00;;;1.00;;
6015;SDS011;3036;49.960;8.454;2022-08-21T15:16:57;0.88;;;0.88;;
6015;SDS011;3036;49.960;8.454;2022-08-21T15:19:24;1.13;;;1.13;;
6015;SDS011;3036;49.960;8.454;2022-08-21T15:21:52;1.17;;;0.73;;
6015;SDS011;3036;49.960;8.454;2022-08-21T15:24:19;1.60;;;1.08;;
6015;SDS011;3036;49.960;8.454;2022-08-21T15:26:46;0.95;;;0.95;;